This is the latest recevied weather packets stored in our database for station/object K8JMX-13. If no packets are shown the sender has not sent any weather packets the latest 1 day(s).
| Time | Temp. | Humidity | Pressure | Rain* | Wind** | Luminosity | Snow |
|---|---|---|---|---|---|---|---|
| 1778030100 | 15.56° C | 92% | 1006.4 hPa | 0 mm | - | 0 W/m² | - |
| 1778029796 | 15.56° C | 91% | 1006.3 hPa | 0 mm | - | 0 W/m² | - |
| 1778029191 | 15.56° C | 91% | 1006.2 hPa | 0 mm | - | 0 W/m² | - |
| 1778028889 | 15.56° C | 91% | 1006.3 hPa | 1.78 mm | - | 0 W/m² | - |
| 1778028584 | 15.56° C | 91% | 1006.3 hPa | 1.78 mm | - | 0 W/m² | - |
| 1778028282 | 15.56° C | 91% | 1006.3 hPa | 1.27 mm | - | 0 W/m² | - |
| 1778027978 | 15.56° C | 91% | 1006.4 hPa | 1.27 mm | - | 0 W/m² | - |
| 1778027675 | 15.56° C | 91% | 1006.4 hPa | 1.78 mm | - | 0 W/m² | - |
| 1778027371 | 15.56° C | 91% | 1006.5 hPa | 0 mm | - | 0 W/m² | - |
| 1778027067 | 15.56° C | 91% | 1006.5 hPa | 0 mm | - | 0 W/m² | - |
| 1778026763 | 15.56° C | 91% | 1006.3 hPa | 0 mm | - | 1 W/m² | - |
| 1778026460 | 15.56° C | 91% | 1006.4 hPa | 0 mm | - | 1 W/m² | - |
| 1778025855 | 15.56° C | 91% | 1006.5 hPa | 3.05 mm | - | 2 W/m² | - |
| 1778024038 | 15.56° C | 91% | 1006.4 hPa | 0 mm | - | 7 W/m² | - |
| 1778021919 | 15.56° C | 90% | 1006.9 hPa | 0 mm | - | 9 W/m² | - |
| 1778020706 | 15.56° C | 89% | 1006.9 hPa | 1.78 mm | - | 26 W/m² | - |
| 1778019795 | 15.56° C | 89% | 1007 hPa | 1.27 mm | - | 18 W/m² | - |
| 1778019189 | 15.56° C | 89% | 1007.1 hPa | 3.05 mm | - | 23 W/m² | - |
| 1778018281 | 15.56° C | 88% | 1006.9 hPa | 3.05 mm | - | 26 W/m² | - |
| 1778017676 | 15.56° C | 87% | 1006.9 hPa | 4.83 mm | - | 31 W/m² | - |
| 1778016769 | 16.11° C | 81% | 1006.8 hPa | 3.05 mm | - | 11 W/m² | - |
| 1778015556 | 21.11° C | 54% | 1005.7 hPa | 0 mm | - | 55 W/m² | - |
* Rain latest hour (hover to see other rain measurements)
** Current wind speed in m/s (hover to see current wind gust speed)